createdAt,value
2019-03-16T00:01:36.252Z,6.15
2019-03-16T00:04:03.065Z,6.37
2019-03-16T00:06:29.524Z,6.50
2019-03-16T00:08:55.903Z,6.28
2019-03-16T00:11:22.667Z,5.78
2019-03-16T00:13:49.306Z,7.00
2019-03-16T00:16:15.787Z,5.87
2019-03-16T00:18:42.229Z,5.67
2019-03-16T00:21:08.707Z,6.65
2019-03-16T00:23:35.241Z,6.35
2019-03-16T00:26:01.702Z,6.95
2019-03-16T00:28:28.145Z,5.00
2019-03-16T00:30:54.593Z,5.58
2019-03-16T00:33:21.187Z,4.20
2019-03-16T00:35:47.639Z,4.72
2019-03-16T00:38:14.466Z,5.10
2019-03-16T00:40:40.967Z,4.25
2019-03-16T00:43:07.736Z,6.15
2019-03-16T00:45:34.411Z,6.83
2019-03-16T00:48:01.222Z,6.78
2019-03-16T00:50:28.268Z,4.87
2019-03-16T00:52:54.832Z,4.35
2019-03-16T00:55:21.275Z,6.22
2019-03-16T00:57:47.730Z,4.95
2019-03-16T01:00:15.499Z,4.97
2019-03-16T01:02:42.076Z,5.70
2019-03-16T01:05:08.855Z,5.75
2019-03-16T01:07:35.605Z,4.85
2019-03-16T01:10:02.876Z,5.65
2019-03-16T01:12:29.312Z,3.40
2019-03-16T01:14:55.693Z,4.87
2019-03-16T01:17:22.232Z,4.00
2019-03-16T01:19:48.598Z,5.53
2019-03-16T01:22:15.049Z,4.85
2019-03-16T01:24:41.419Z,3.65
2019-03-16T01:27:08.147Z,4.50
2019-03-16T01:29:34.726Z,3.42
2019-03-16T01:32:01.171Z,5.10
2019-03-16T01:34:28.064Z,4.37
2019-03-16T01:36:54.553Z,13.35
2019-03-16T01:39:20.996Z,7.03
2019-03-16T01:41:47.462Z,8.20
2019-03-16T01:44:13.824Z,8.28
2019-03-16T01:46:40.309Z,6.08
2019-03-16T01:49:08.093Z,4.30
2019-03-16T01:51:34.676Z,3.25
2019-03-16T01:54:01.142Z,3.70
2019-03-16T01:56:27.603Z,3.55
2019-03-16T01:58:53.964Z,4.03
2019-03-16T02:01:20.427Z,5.78
2019-03-16T02:03:46.879Z,3.92
2019-03-16T02:06:13.441Z,4.22
2019-03-16T02:08:40.181Z,4.17
2019-03-16T02:11:06.660Z,4.08
2019-03-16T02:13:33.199Z,4.75
2019-03-16T02:16:10.319Z,3.30
2019-03-16T02:18:28.012Z,3.47
2019-03-16T02:20:54.571Z,3.35
2019-03-16T02:23:21.039Z,4.05
2019-03-16T02:25:47.498Z,3.67
2019-03-16T02:28:14.313Z,3.70
2019-03-16T02:30:40.771Z,2.80
2019-03-16T02:33:13.214Z,3.02
2019-03-16T02:35:35.709Z,3.10
2019-03-16T02:38:02.500Z,3.17
2019-03-16T02:40:29.250Z,3.35
2019-03-16T02:42:55.839Z,3.47
2019-03-16T02:45:22.540Z,3.02
2019-03-16T02:47:49.084Z,3.02
2019-03-16T02:50:15.738Z,2.92
2019-03-16T02:52:42.180Z,2.75
2019-03-16T02:55:08.746Z,2.77
2019-03-16T02:57:35.601Z,2.52
2019-03-16T03:00:05.070Z,2.40
2019-03-16T03:02:31.524Z,2.50
2019-03-16T03:04:57.990Z,3.30
2019-03-16T03:07:24.644Z,3.20
2019-03-16T03:09:51.116Z,3.10
2019-03-16T03:12:17.552Z,3.35
2019-03-16T03:14:44.438Z,3.45
2019-03-16T03:17:11.273Z,3.40
2019-03-16T03:19:37.744Z,3.27
2019-03-16T03:22:04.472Z,3.45
2019-03-16T03:24:30.937Z,2.70
2019-03-16T03:26:57.377Z,3.15
2019-03-16T03:29:23.846Z,3.00
2019-03-16T03:31:50.297Z,3.20
2019-03-16T03:34:16.793Z,3.45
2019-03-16T03:36:43.431Z,3.98
2019-03-16T03:39:10.194Z,3.90
2019-03-16T03:41:36.864Z,4.33
2019-03-16T03:44:03.546Z,3.30
2019-03-16T03:46:32.284Z,2.50
2019-03-16T03:48:58.596Z,3.70
2019-03-16T03:51:25.160Z,3.25
2019-03-16T03:53:51.710Z,4.20
2019-03-16T03:56:18.661Z,3.55
2019-03-16T03:58:45.112Z,3.47
2019-03-16T04:01:11.768Z,3.35
2019-03-16T04:03:38.604Z,3.27
2019-03-16T04:06:05.204Z,3.80
2019-03-16T04:08:31.764Z,3.80
2019-03-16T04:10:58.241Z,5.62
2019-03-16T04:13:24.777Z,4.90
2019-03-16T04:15:51.156Z,5.05
2019-03-16T04:18:17.611Z,7.85
2019-03-16T04:20:44.161Z,6.20
2019-03-16T04:23:10.739Z,5.22
2019-03-16T04:25:37.453Z,6.28
2019-03-16T04:28:04.028Z,6.60
2019-03-16T04:30:30.474Z,6.40
2019-03-16T04:32:56.945Z,6.33
2019-03-16T04:35:23.706Z,8.03
2019-03-16T04:37:50.162Z,6.40
2019-03-16T04:40:16.515Z,7.92
2019-03-16T04:42:42.982Z,6.50
2019-03-16T04:45:10.125Z,6.42
2019-03-16T04:47:36.481Z,6.15
2019-03-16T04:50:05.347Z,6.53
2019-03-16T04:52:31.808Z,4.35
2019-03-16T04:54:58.376Z,5.15
2019-03-16T04:57:24.811Z,5.00
2019-03-16T04:59:51.285Z,6.55
2019-03-16T05:02:17.819Z,5.00
2019-03-16T05:04:44.283Z,5.33
2019-03-16T05:07:10.654Z,5.05
2019-03-16T05:09:37.110Z,4.25
2019-03-16T05:12:03.574Z,5.10
2019-03-16T05:14:30.027Z,3.98
2019-03-16T05:16:56.862Z,4.40
2019-03-16T05:19:23.419Z,4.42
2019-03-16T05:21:49.859Z,5.03
2019-03-16T05:24:16.234Z,4.05
2019-03-16T05:26:42.698Z,3.87
2019-03-16T05:29:09.285Z,4.53
2019-03-16T05:31:35.720Z,4.50
2019-03-16T05:34:02.528Z,2.60
2019-03-16T05:36:29.079Z,3.80
2019-03-16T05:38:55.520Z,2.40
2019-03-16T05:41:22.087Z,3.42
2019-03-16T05:43:48.439Z,4.35
2019-03-16T05:46:14.818Z,3.45
2019-03-16T05:48:41.289Z,3.15
2019-03-16T05:51:07.861Z,3.60
2019-03-16T05:53:34.691Z,3.80
2019-03-16T05:56:01.533Z,3.25
2019-03-16T05:58:27.977Z,3.95
2019-03-16T06:00:54.343Z,3.22
2019-03-16T06:03:20.806Z,4.15
2019-03-16T06:05:47.248Z,4.80
2019-03-16T06:08:13.927Z,3.85
2019-03-16T06:10:40.379Z,3.35
2019-03-16T06:13:07.185Z,3.77
2019-03-16T06:15:33.629Z,3.95
2019-03-16T06:18:00.092Z,3.10
2019-03-16T06:20:26.439Z,3.40
2019-03-16T06:22:52.803Z,3.70
2019-03-16T06:25:19.249Z,3.20
2019-03-16T06:27:45.732Z,3.58
2019-03-16T06:30:13.588Z,3.27
2019-03-16T06:32:40.093Z,3.12
2019-03-16T06:35:06.933Z,2.52
2019-03-16T06:37:33.390Z,2.58
2019-03-16T06:39:59.844Z,2.35
2019-03-16T06:42:26.279Z,3.08
2019-03-16T06:44:53.139Z,3.80
2019-03-16T06:47:19.583Z,3.60
2019-03-16T06:49:45.951Z,3.10
2019-03-16T06:52:12.409Z,4.03
2019-03-16T06:54:38.966Z,3.58
2019-03-16T06:57:05.418Z,3.50
2019-03-16T06:59:31.910Z,3.52
2019-03-16T07:01:58.438Z,3.65
2019-03-16T07:04:25.158Z,4.10
2019-03-16T07:06:51.592Z,3.08
2019-03-16T07:09:18.443Z,2.72
2019-03-16T07:11:44.885Z,2.47
2019-03-16T07:14:11.816Z,2.33
2019-03-16T07:16:38.254Z,2.58
2019-03-16T07:19:05.192Z,1.40
2019-03-16T07:21:31.632Z,1.62
2019-03-16T07:23:58.111Z,1.80
2019-03-16T07:26:24.572Z,1.80
2019-03-16T07:28:51.150Z,1.60
2019-03-16T07:31:17.620Z,1.90
2019-03-16T07:33:44.405Z,1.30
2019-03-16T07:36:10.854Z,1.60
2019-03-16T07:38:37.236Z,1.75
2019-03-16T07:41:04.216Z,1.45
2019-03-16T07:43:30.666Z,1.75
2019-03-16T07:45:57.123Z,1.77
2019-03-16T07:48:23.679Z,1.45
2019-03-16T07:50:50.264Z,2.00
2019-03-16T07:53:16.998Z,1.77
2019-03-16T07:55:43.740Z,1.30
2019-03-16T07:58:10.291Z,2.30
2019-03-16T08:00:36.746Z,3.00
2019-03-16T08:03:03.398Z,2.10
2019-03-16T08:05:29.787Z,2.10
2019-03-16T08:07:56.237Z,1.95
2019-03-16T08:10:22.979Z,1.90
2019-03-16T08:12:49.324Z,1.90
2019-03-16T08:15:15.704Z,2.40
2019-03-16T08:17:42.148Z,1.95
2019-03-16T08:20:09.705Z,2.35
2019-03-16T08:22:36.170Z,2.25
2019-03-16T08:25:03.415Z,2.90
2019-03-16T08:27:30.132Z,2.92
2019-03-16T08:29:56.489Z,2.58
2019-03-16T08:32:25.459Z,3.80
2019-03-16T08:34:51.998Z,3.72
2019-03-16T08:37:18.734Z,3.10
2019-03-16T08:39:45.214Z,3.65
2019-03-16T08:42:12.448Z,3.77
2019-03-16T08:44:38.963Z,4.78
2019-03-16T08:47:05.429Z,3.85
2019-03-16T08:49:31.892Z,3.95
2019-03-16T08:51:58.484Z,3.65
2019-03-16T08:54:24.927Z,4.50
2019-03-16T08:56:51.292Z,4.05
2019-03-16T08:59:18.082Z,4.72
2019-03-16T09:01:44.543Z,4.03
2019-03-16T09:04:11.015Z,4.08
2019-03-16T09:06:37.579Z,4.28
2019-03-16T09:09:05.288Z,4.75
2019-03-16T09:11:31.732Z,4.22
2019-03-16T09:13:58.418Z,4.45
2019-03-16T09:16:25.180Z,4.10
2019-03-16T09:18:51.732Z,3.50
2019-03-16T09:21:18.184Z,3.20
2019-03-16T09:23:44.773Z,3.80
2019-03-16T09:26:11.468Z,3.22
2019-03-16T09:28:37.953Z,3.42
2019-03-16T09:31:04.888Z,3.67
2019-03-16T09:33:31.832Z,2.30
2019-03-16T09:35:58.823Z,1.80
2019-03-16T09:38:25.540Z,2.83
2019-03-16T09:40:52.463Z,2.75
2019-03-16T09:43:18.903Z,2.30
2019-03-16T09:45:45.764Z,2.10
2019-03-16T09:48:12.833Z,2.42
2019-03-16T09:50:39.528Z,1.62
2019-03-16T09:53:06.086Z,2.50
2019-03-16T09:55:35.056Z,1.77
2019-03-16T09:58:01.191Z,1.62
2019-03-16T10:00:28.029Z,1.85
2019-03-16T10:02:54.807Z,1.55
2019-03-16T10:05:21.643Z,1.20
2019-03-16T10:07:50.199Z,3.05
2019-03-16T10:10:16.697Z,1.50
2019-03-16T10:12:43.580Z,1.62
2019-03-16T10:15:12.473Z,1.25
2019-03-16T10:17:38.919Z,1.57
2019-03-16T10:20:08.017Z,1.62
2019-03-16T10:22:34.840Z,1.45
2019-03-16T10:25:01.288Z,1.60
2019-03-16T10:27:27.677Z,2.00
2019-03-16T10:29:54.143Z,1.30
2019-03-16T10:32:20.611Z,1.25
2019-03-16T10:34:47.600Z,1.07
2019-03-16T10:37:14.168Z,1.85
2019-03-16T10:39:41.002Z,0.90
2019-03-16T10:42:07.573Z,1.30
2019-03-16T10:44:34.049Z,1.10
2019-03-16T10:47:00.420Z,1.35
2019-03-16T10:49:26.883Z,1.20
2019-03-16T10:51:53.358Z,2.40
2019-03-16T10:54:19.812Z,1.20
2019-03-16T10:56:46.557Z,1.05
2019-03-16T10:59:13.036Z,1.20
2019-03-16T11:01:39.954Z,1.12
2019-03-16T11:04:06.503Z,1.07
2019-03-16T11:06:33.520Z,1.30
2019-03-16T11:09:00.076Z,1.02
2019-03-16T11:11:26.452Z,1.27
2019-03-16T11:13:52.822Z,1.07
2019-03-16T11:16:19.557Z,1.12
2019-03-16T11:18:46.123Z,1.57
2019-03-16T11:21:12.491Z,1.15
2019-03-16T11:23:39.075Z,0.98
2019-03-16T11:26:05.653Z,1.05
2019-03-16T11:28:32.111Z,0.80
2019-03-16T11:30:58.761Z,0.87
2019-03-16T11:33:25.227Z,0.80
2019-03-16T11:35:51.739Z,0.80
2019-03-16T11:38:18.219Z,0.90
2019-03-16T11:40:44.859Z,1.00
2019-03-16T11:43:11.601Z,0.95
2019-03-16T11:45:38.003Z,1.00
2019-03-16T11:48:04.478Z,0.70
2019-03-16T11:50:30.947Z,0.80
2019-03-16T11:52:57.424Z,1.00
2019-03-16T11:55:24.088Z,1.10
2019-03-16T11:57:50.555Z,1.20
2019-03-16T12:00:16.940Z,1.00
2019-03-16T12:02:43.510Z,0.80
2019-03-16T12:05:10.503Z,0.93
2019-03-16T12:07:37.069Z,1.10
2019-03-16T12:10:07.171Z,0.90
2019-03-16T12:12:33.731Z,0.90
2019-03-16T12:15:00.367Z,1.40
2019-03-16T12:17:26.837Z,1.27
2019-03-16T12:19:53.314Z,0.90
2019-03-16T12:22:19.771Z,1.37
2019-03-16T12:24:46.528Z,1.07
2019-03-16T12:27:13.301Z,0.90
2019-03-16T12:29:39.863Z,1.00
2019-03-16T12:32:06.772Z,1.15
2019-03-16T12:34:33.375Z,2.50
2019-03-16T12:37:00.259Z,1.82
2019-03-16T12:39:26.707Z,1.17
2019-03-16T12:41:53.208Z,0.98
2019-03-16T12:44:19.812Z,2.25
2019-03-16T12:46:46.272Z,1.10
2019-03-16T12:49:12.830Z,1.60
2019-03-16T12:51:39.268Z,1.20
2019-03-16T12:54:05.744Z,1.30
2019-03-16T12:56:32.208Z,1.37
2019-03-16T12:59:10.002Z,1.10
2019-03-16T13:01:27.018Z,1.30
2019-03-16T13:03:53.411Z,1.22
2019-03-16T13:06:20.115Z,1.07
2019-03-16T13:08:46.588Z,1.10
2019-03-16T13:11:13.135Z,0.80
2019-03-16T13:13:39.929Z,0.95
2019-03-16T13:16:06.380Z,1.30
2019-03-16T13:18:32.868Z,1.07
2019-03-16T13:20:59.312Z,1.45
2019-03-16T13:23:25.903Z,1.02
2019-03-16T13:25:52.831Z,0.80
2019-03-16T13:28:19.387Z,0.90
2019-03-16T13:30:45.865Z,1.32
2019-03-16T13:33:12.303Z,1.95
2019-03-16T13:35:38.817Z,1.40
2019-03-16T13:38:05.395Z,1.65
2019-03-16T13:40:32.130Z,1.50
2019-03-16T13:42:58.592Z,1.22
2019-03-16T13:45:25.090Z,1.02
2019-03-16T13:47:52.021Z,1.35
2019-03-16T13:50:19.540Z,1.20
2019-03-16T13:52:46.289Z,1.20
2019-03-16T13:55:13.079Z,1.30
2019-03-16T13:57:39.639Z,1.00
2019-03-16T14:00:14.497Z,1.30
2019-03-16T14:02:41.150Z,1.15
2019-03-16T14:05:07.812Z,1.20
2019-03-16T14:07:34.781Z,1.20
2019-03-16T14:10:01.228Z,1.70
2019-03-16T14:12:27.714Z,1.10
2019-03-16T14:14:54.568Z,1.35
2019-03-16T14:17:21.143Z,1.52
2019-03-16T14:19:47.704Z,1.35
2019-03-16T14:22:14.186Z,1.35
2019-03-16T14:24:40.735Z,1.40
2019-03-16T14:27:08.273Z,1.52
2019-03-16T14:29:35.079Z,1.42
2019-03-16T14:32:01.988Z,1.40
2019-03-16T14:34:28.451Z,1.47
2019-03-16T14:36:57.250Z,1.40
2019-03-16T14:39:23.232Z,2.12
2019-03-16T14:41:49.795Z,1.80
2019-03-16T14:44:16.277Z,1.40
2019-03-16T14:46:42.880Z,1.30
2019-03-16T14:49:09.460Z,1.45
2019-03-16T14:51:36.165Z,1.65
2019-03-16T14:54:02.834Z,1.95
2019-03-16T14:56:29.374Z,1.35
2019-03-16T14:58:55.851Z,1.65
2019-03-16T15:01:22.406Z,1.40
2019-03-16T15:03:49.001Z,1.10
2019-03-16T15:06:15.803Z,1.50
2019-03-16T15:08:42.288Z,1.67
2019-03-16T15:11:08.847Z,1.12
2019-03-16T15:13:35.678Z,1.52
2019-03-16T15:16:02.506Z,2.45
2019-03-16T15:18:28.967Z,1.37
2019-03-16T15:20:55.446Z,1.52
2019-03-16T15:23:22.312Z,1.72
2019-03-16T15:25:49.153Z,1.15
2019-03-16T15:28:15.648Z,2.17
2019-03-16T15:30:50.656Z,1.50
2019-03-16T15:33:10.501Z,1.47
2019-03-16T15:35:36.999Z,1.72
2019-03-16T15:38:03.447Z,1.90
2019-03-16T15:40:30.026Z,1.50
2019-03-16T15:42:56.568Z,1.50
2019-03-16T15:45:25.028Z,1.52
2019-03-16T15:47:51.720Z,1.60
2019-03-16T15:50:18.282Z,1.90
2019-03-16T15:52:44.947Z,2.02
2019-03-16T15:55:11.990Z,1.70
2019-03-16T15:57:38.566Z,1.75
2019-03-16T16:00:13.434Z,2.10
2019-03-16T16:02:40.104Z,1.30
2019-03-16T16:05:07.978Z,1.60
2019-03-16T16:07:35.460Z,1.67
2019-03-16T16:10:04.273Z,1.72
2019-03-16T16:12:30.845Z,1.52
2019-03-16T16:14:57.316Z,1.85
2019-03-16T16:17:24.224Z,1.30
2019-03-16T16:19:50.775Z,1.62
2019-03-16T16:22:17.362Z,1.98
2019-03-16T16:24:43.741Z,1.70
2019-03-16T16:27:10.332Z,2.15
2019-03-16T16:29:36.790Z,1.17
2019-03-16T16:32:03.474Z,1.77
2019-03-16T16:34:30.284Z,2.10
2019-03-16T16:36:56.771Z,2.25
2019-03-16T16:39:23.124Z,1.80
2019-03-16T16:41:49.988Z,1.82
2019-03-16T16:44:16.468Z,2.02
2019-03-16T16:46:43.373Z,1.70
2019-03-16T16:49:09.828Z,1.50
2019-03-16T16:51:36.655Z,1.98
2019-03-16T16:54:03.219Z,1.50
2019-03-16T16:56:29.913Z,1.90
2019-03-16T16:58:56.370Z,1.30
2019-03-16T17:01:29.255Z,1.90
2019-03-16T17:03:51.504Z,1.57
2019-03-16T17:06:18.227Z,1.92
2019-03-16T17:08:44.692Z,1.90
2019-03-16T17:11:11.700Z,1.90
2019-03-16T17:13:38.538Z,1.50
2019-03-16T17:16:05.100Z,2.35
2019-03-16T17:18:31.667Z,2.10
2019-03-16T17:20:58.464Z,2.33
2019-03-16T17:23:25.038Z,2.02
2019-03-16T17:25:51.665Z,2.08
2019-03-16T17:28:18.123Z,2.30
2019-03-16T17:30:44.796Z,2.33
2019-03-16T17:33:11.480Z,2.50
2019-03-16T17:35:38.067Z,2.02
2019-03-16T17:38:04.539Z,2.08
2019-03-16T17:40:31.132Z,2.35
2019-03-16T17:42:57.805Z,2.27
2019-03-16T17:45:24.519Z,2.62
2019-03-16T17:47:50.986Z,2.12
2019-03-16T17:50:17.655Z,2.77
2019-03-16T17:52:44.379Z,2.77
2019-03-16T17:55:12.828Z,2.05
2019-03-16T17:57:39.308Z,2.55
2019-03-16T18:00:09.242Z,2.75
2019-03-16T18:02:35.939Z,2.37
2019-03-16T18:05:03.814Z,2.80
2019-03-16T18:07:30.386Z,2.80
2019-03-16T18:09:56.993Z,3.00
2019-03-16T18:12:23.620Z,3.17
2019-03-16T18:14:50.212Z,2.77
2019-03-16T18:17:16.884Z,2.87
2019-03-16T18:19:43.577Z,3.20
2019-03-16T18:22:10.430Z,2.70
2019-03-16T18:24:36.892Z,3.10
2019-03-16T18:27:03.454Z,3.05
2019-03-16T18:29:29.931Z,2.87
2019-03-16T18:32:07.205Z,2.90
2019-03-16T18:34:25.301Z,3.02
2019-03-16T18:36:51.889Z,3.83
2019-03-16T18:39:18.464Z,3.47
2019-03-16T18:41:45.036Z,3.20
2019-03-16T18:44:11.388Z,3.27
2019-03-16T18:46:37.764Z,3.35
2019-03-16T18:49:04.116Z,3.42
2019-03-16T18:51:30.473Z,2.75
2019-03-16T18:53:56.953Z,3.15
2019-03-16T18:56:23.796Z,2.80
2019-03-16T18:58:50.643Z,3.35
2019-03-16T19:01:17.392Z,2.52
2019-03-16T19:03:43.866Z,3.30
2019-03-16T19:06:10.429Z,3.50
2019-03-16T19:08:37.220Z,3.05
2019-03-16T19:11:03.564Z,3.70
2019-03-16T19:13:29.930Z,3.65
2019-03-16T19:15:59.019Z,3.00
2019-03-16T19:18:25.083Z,2.62
2019-03-16T19:20:51.740Z,3.75
2019-03-16T19:23:18.324Z,3.65
2019-03-16T19:25:44.968Z,3.95
2019-03-16T19:28:11.568Z,3.10
2019-03-16T19:30:38.033Z,4.03
2019-03-16T19:33:04.762Z,3.17
2019-03-16T19:35:31.667Z,3.02
2019-03-16T19:37:58.212Z,2.90
2019-03-16T19:40:24.787Z,3.30
2019-03-16T19:42:51.455Z,3.92
2019-03-16T19:45:17.931Z,3.60
2019-03-16T19:47:44.461Z,3.75
2019-03-16T19:50:12.439Z,3.58
2019-03-16T19:52:38.879Z,3.47
2019-03-16T19:55:07.951Z,4.30
2019-03-16T19:57:34.399Z,3.62
2019-03-16T20:00:01.104Z,2.83
2019-03-16T20:02:27.544Z,4.05
2019-03-16T20:04:54.068Z,4.08
2019-03-16T20:07:22.964Z,3.20
2019-03-16T20:09:48.911Z,3.50
2019-03-16T20:12:15.362Z,3.72
2019-03-16T20:14:41.919Z,3.60
2019-03-16T20:17:08.403Z,4.10
2019-03-16T20:19:34.940Z,4.50
2019-03-16T20:22:01.772Z,3.25
2019-03-16T20:24:28.324Z,3.27
2019-03-16T20:26:54.827Z,4.03
2019-03-16T20:29:21.481Z,2.90
2019-03-16T20:31:48.063Z,3.27
2019-03-16T20:34:14.661Z,2.90
2019-03-16T20:36:41.134Z,3.27
2019-03-16T20:39:07.688Z,2.92
2019-03-16T20:41:36.435Z,3.80
2019-03-16T20:44:02.476Z,3.10
2019-03-16T20:46:28.911Z,3.30
2019-03-16T20:48:55.382Z,2.42
2019-03-16T20:51:21.984Z,3.25
2019-03-16T20:53:48.455Z,3.52
2019-03-16T20:56:14.912Z,2.75
2019-03-16T20:58:41.656Z,2.90
2019-03-16T21:01:08.245Z,3.12
2019-03-16T21:03:35.346Z,3.25
2019-03-16T21:06:01.905Z,3.15
2019-03-16T21:08:28.418Z,3.20
2019-03-16T21:10:54.948Z,2.52
2019-03-16T21:13:21.428Z,2.90
2019-03-16T21:15:47.881Z,2.47
2019-03-16T21:18:14.328Z,3.05
2019-03-16T21:20:41.200Z,2.58
2019-03-16T21:23:08.023Z,3.22
2019-03-16T21:25:34.674Z,2.55
2019-03-16T21:28:01.232Z,2.55
2019-03-16T21:30:27.800Z,2.40
2019-03-16T21:32:54.242Z,3.08
2019-03-16T21:35:20.619Z,2.60
2019-03-16T21:37:47.068Z,2.55
2019-03-16T21:40:14.631Z,2.75
2019-03-16T21:42:41.175Z,2.33
2019-03-16T21:45:09.251Z,2.50
2019-03-16T21:47:35.602Z,2.60
2019-03-16T21:50:04.306Z,3.20
2019-03-16T21:52:30.789Z,2.60
2019-03-16T21:54:57.711Z,2.27
2019-03-16T21:57:24.390Z,2.30
2019-03-16T21:59:51.132Z,2.15
2019-03-16T22:02:17.599Z,2.87
2019-03-16T22:04:44.267Z,2.67
2019-03-16T22:07:10.738Z,2.22
2019-03-16T22:09:37.312Z,1.72
2019-03-16T22:12:04.282Z,2.55
2019-03-16T22:14:31.129Z,2.27
2019-03-16T22:16:57.620Z,1.77
2019-03-16T22:19:24.137Z,2.30
2019-03-16T22:21:50.696Z,2.33
2019-03-16T22:24:17.141Z,2.90
2019-03-16T22:26:43.604Z,2.50
2019-03-16T22:29:09.984Z,3.25
2019-03-16T22:31:36.476Z,3.12
2019-03-16T22:34:02.963Z,4.58
2019-03-16T22:36:29.857Z,3.80
2019-03-16T22:38:56.801Z,2.80
2019-03-16T22:41:23.568Z,4.22
2019-03-16T22:43:50.136Z,3.42
2019-03-16T22:46:16.592Z,4.00
2019-03-16T22:48:43.566Z,4.03
2019-03-16T22:51:10.393Z,3.72
2019-03-16T22:53:36.873Z,3.83
2019-03-16T22:56:03.586Z,2.95
2019-03-16T22:58:30.035Z,3.50
2019-03-16T23:00:56.968Z,6.20
2019-03-16T23:03:23.520Z,3.47
2019-03-16T23:05:50.328Z,3.85
2019-03-16T23:08:16.785Z,4.45
2019-03-16T23:10:43.361Z,6.10
2019-03-16T23:13:09.815Z,5.85
2019-03-16T23:15:36.295Z,6.62
2019-03-16T23:18:03.320Z,5.30
2019-03-16T23:20:29.915Z,6.70
2019-03-16T23:22:56.447Z,3.92
2019-03-16T23:25:23.051Z,6.97
2019-03-16T23:27:49.652Z,4.67
2019-03-16T23:30:16.371Z,3.05
2019-03-16T23:32:43.240Z,2.50
2019-03-16T23:35:10.011Z,5.35
2019-03-16T23:37:36.659Z,3.55
2019-03-16T23:40:05.309Z,2.75
2019-03-16T23:42:31.815Z,3.17
2019-03-16T23:44:58.416Z,3.17
2019-03-16T23:47:24.885Z,4.75
2019-03-16T23:49:51.778Z,3.20
2019-03-16T23:52:18.274Z,2.62
2019-03-16T23:54:45.160Z,3.25
2019-03-16T23:57:11.632Z,3.17
2019-03-16T23:59:38.083Z,2.30
